sensor_id;sensor_type;location;lat;lon;timestamp;P1;P2;P0
77320;PMS7003;66382;52.252;8.780;2023-06-26T00:01:52;19.00;19.00;14.00
77320;PMS7003;66382;52.252;8.780;2023-06-26T00:04:17;17.33;17.33;14.33
77320;PMS7003;66382;52.252;8.780;2023-06-26T00:06:44;21.33;21.33;15.67
77320;PMS7003;66382;52.252;8.780;2023-06-26T00:09:10;18.25;18.25;14.25
77320;PMS7003;66382;52.252;8.780;2023-06-26T00:11:36;17.00;17.00;15.33
77320;PMS7003;66382;52.252;8.780;2023-06-26T00:14:02;16.33;16.33;14.33
77320;PMS7003;66382;52.252;8.780;2023-06-26T00:16:27;19.33;19.33;14.33
77320;PMS7003;66382;52.252;8.780;2023-06-26T00:18:53;17.67;17.67;15.00
77320;PMS7003;66382;52.252;8.780;2023-06-26T00:21:19;18.67;18.67;15.67
77320;PMS7003;66382;52.252;8.780;2023-06-26T00:23:46;16.67;16.67;15.33
77320;PMS7003;66382;52.252;8.780;2023-06-26T00:26:12;20.00;20.00;17.00
77320;PMS7003;66382;52.252;8.780;2023-06-26T00:28:37;17.67;17.67;14.67
77320;PMS7003;66382;52.252;8.780;2023-06-26T00:31:03;17.33;17.33;15.00
77320;PMS7003;66382;52.252;8.780;2023-06-26T00:33:29;18.33;18.33;15.00
77320;PMS7003;66382;52.252;8.780;2023-06-26T00:35:55;17.00;17.00;13.33
77320;PMS7003;66382;52.252;8.780;2023-06-26T00:38:20;22.00;22.00;17.00
77320;PMS7003;66382;52.252;8.780;2023-06-26T00:40:47;21.33;21.33;17.00
77320;PMS7003;66382;52.252;8.780;2023-06-26T00:43:13;14.75;14.75;11.75
77320;PMS7003;66382;52.252;8.780;2023-06-26T00:45:39;19.33;19.33;15.00
77320;PMS7003;66382;52.252;8.780;2023-06-26T00:48:05;23.00;23.00;17.00
77320;PMS7003;66382;52.252;8.780;2023-06-26T00:50:31;21.00;21.00;17.25
77320;PMS7003;66382;52.252;8.780;2023-06-26T00:52:57;17.25;17.25;13.75
77320;PMS7003;66382;52.252;8.780;2023-06-26T00:55:23;19.00;19.00;15.67
77320;PMS7003;66382;52.252;8.780;2023-06-26T00:57:50;20.00;20.00;17.00
77320;PMS7003;66382;52.252;8.780;2023-06-26T01:00:16;16.25;16.25;12.50
77320;PMS7003;66382;52.252;8.780;2023-06-26T01:02:41;20.25;20.25;15.50
77320;PMS7003;66382;52.252;8.780;2023-06-26T01:05:07;21.33;21.33;16.00
77320;PMS7003;66382;52.252;8.780;2023-06-26T01:07:33;13.25;13.25;11.75
77320;PMS7003;66382;52.252;8.780;2023-06-26T01:10:00;19.50;19.50;17.25
77320;PMS7003;66382;52.252;8.780;2023-06-26T01:12:26;19.33;19.33;16.33
77320;PMS7003;66382;52.252;8.780;2023-06-26T01:14:53;20.33;20.33;16.00
77320;PMS7003;66382;52.252;8.780;2023-06-26T01:17:18;18.75;18.75;15.75
77320;PMS7003;66382;52.252;8.780;2023-06-26T01:19:45;18.75;18.75;15.00
77320;PMS7003;66382;52.252;8.780;2023-06-26T01:22:14;19.25;19.25;15.50
77320;PMS7003;66382;52.252;8.780;2023-06-26T01:24:53;19.50;19.50;15.75
77320;PMS7003;66382;52.252;8.780;2023-06-26T01:27:28;19.25;19.25;16.00
77320;PMS7003;66382;52.252;8.780;2023-06-26T01:29:56;20.25;20.25;14.75
77320;PMS7003;66382;52.252;8.780;2023-06-26T01:32:22;19.75;19.75;15.75
77320;PMS7003;66382;52.252;8.780;2023-06-26T01:34:49;18.50;18.50;14.75
77320;PMS7003;66382;52.252;8.780;2023-06-26T01:37:16;21.00;21.00;16.00
77320;PMS7003;66382;52.252;8.780;2023-06-26T01:39:42;17.00;17.00;13.00
77320;PMS7003;66382;52.252;8.780;2023-06-26T01:42:08;17.00;17.00;15.33
77320;PMS7003;66382;52.252;8.780;2023-06-26T01:44:37;19.75;19.75;16.25
77320;PMS7003;66382;52.252;8.780;2023-06-26T01:47:09;18.50;18.50;14.75
77320;PMS7003;66382;52.252;8.780;2023-06-26T01:49:41;17.25;17.25;14.25
77320;PMS7003;66382;52.252;8.780;2023-06-26T01:52:14;20.00;20.00;17.25
77320;PMS7003;66382;52.252;8.780;2023-06-26T01:54:47;18.25;18.25;14.25
77320;PMS7003;66382;52.252;8.780;2023-06-26T01:57:21;19.00;19.00;15.00
77320;PMS7003;66382;52.252;8.780;2023-06-26T01:59:49;18.75;18.75;15.50
77320;PMS7003;66382;52.252;8.780;2023-06-26T02:02:16;18.50;18.00;14.00
77320;PMS7003;66382;52.252;8.780;2023-06-26T02:04:42;17.33;17.33;15.00
77320;PMS7003;66382;52.252;8.780;2023-06-26T02:07:07;18.00;18.00;14.33
77320;PMS7003;66382;52.252;8.780;2023-06-26T02:09:33;20.67;20.67;16.33
77320;PMS7003;66382;52.252;8.780;2023-06-26T02:11:59;18.33;18.33;14.33
77320;PMS7003;66382;52.252;8.780;2023-06-26T02:14:24;20.67;20.67;16.67
77320;PMS7003;66382;52.252;8.780;2023-06-26T02:16:51;16.00;16.00;13.33
77320;PMS7003;66382;52.252;8.780;2023-06-26T02:19:17;17.75;17.75;14.00
77320;PMS7003;66382;52.252;8.780;2023-06-26T02:21:43;19.67;19.67;15.67
77320;PMS7003;66382;52.252;8.780;2023-06-26T02:24:08;20.33;20.33;15.00
77320;PMS7003;66382;52.252;8.780;2023-06-26T02:26:34;17.67;17.67;15.33
77320;PMS7003;66382;52.252;8.780;2023-06-26T02:29:00;19.67;19.67;15.00
77320;PMS7003;66382;52.252;8.780;2023-06-26T02:31:25;18.33;18.33;15.00
77320;PMS7003;66382;52.252;8.780;2023-06-26T02:33:53;15.33;15.33;13.00
77320;PMS7003;66382;52.252;8.780;2023-06-26T02:36:18;17.00;17.00;14.50
77320;PMS7003;66382;52.252;8.780;2023-06-26T02:38:44;18.67;18.67;16.00
77320;PMS7003;66382;52.252;8.780;2023-06-26T02:41:10;17.67;17.67;14.67
77320;PMS7003;66382;52.252;8.780;2023-06-26T02:43:35;18.67;18.67;14.00
77320;PMS7003;66382;52.252;8.780;2023-06-26T02:46:01;19.67;19.67;16.00
77320;PMS7003;66382;52.252;8.780;2023-06-26T02:48:27;18.67;18.67;14.67
77320;PMS7003;66382;52.252;8.780;2023-06-26T02:50:54;17.00;17.00;13.00
77320;PMS7003;66382;52.252;8.780;2023-06-26T02:53:19;19.00;19.00;15.00
77320;PMS7003;66382;52.252;8.780;2023-06-26T02:55:45;16.67;16.67;14.00
77320;PMS7003;66382;52.252;8.780;2023-06-26T02:58:11;18.00;18.00;14.33
77320;PMS7003;66382;52.252;8.780;2023-06-26T03:00:36;20.33;20.33;15.67
77320;PMS7003;66382;52.252;8.780;2023-06-26T03:03:02;17.00;17.00;13.00
77320;PMS7003;66382;52.252;8.780;2023-06-26T03:05:28;15.67;15.67;13.00
77320;PMS7003;66382;52.252;8.780;2023-06-26T03:07:55;17.33;17.33;13.67
77320;PMS7003;66382;52.252;8.780;2023-06-26T03:10:21;15.25;15.25;13.50
77320;PMS7003;66382;52.252;8.780;2023-06-26T03:12:46;18.00;18.00;14.00
77320;PMS7003;66382;52.252;8.780;2023-06-26T03:15:12;19.33;19.33;16.00
77320;PMS7003;66382;52.252;8.780;2023-06-26T03:17:38;16.67;16.67;14.00
77320;PMS7003;66382;52.252;8.780;2023-06-26T03:20:04;15.00;15.00;14.00
77320;PMS7003;66382;52.252;8.780;2023-06-26T03:22:30;15.75;15.75;13.50
77320;PMS7003;66382;52.252;8.780;2023-06-26T03:24:57;21.00;20.00;14.67
77320;PMS7003;66382;52.252;8.780;2023-06-26T03:27:23;17.50;17.50;14.50
77320;PMS7003;66382;52.252;8.780;2023-06-26T03:29:49;18.33;18.33;15.00
77320;PMS7003;66382;52.252;8.780;2023-06-26T03:32:14;13.00;13.00;12.33
77320;PMS7003;66382;52.252;8.780;2023-06-26T03:34:40;14.33;14.33;11.00
77320;PMS7003;66382;52.252;8.780;2023-06-26T03:37:06;20.33;20.33;15.00
77320;PMS7003;66382;52.252;8.780;2023-06-26T03:39:31;15.67;15.67;12.67
77320;PMS7003;66382;52.252;8.780;2023-06-26T03:41:58;18.00;18.00;14.33
77320;PMS7003;66382;52.252;8.780;2023-06-26T03:44:24;17.50;17.50;14.00
77320;PMS7003;66382;52.252;8.780;2023-06-26T03:46:50;14.00;14.00;12.33
77320;PMS7003;66382;52.252;8.780;2023-06-26T03:49:16;18.33;18.33;14.67
77320;PMS7003;66382;52.252;8.780;2023-06-26T03:51:41;16.00;16.00;13.33
77320;PMS7003;66382;52.252;8.780;2023-06-26T03:54:07;17.33;17.33;14.33
77320;PMS7003;66382;52.252;8.780;2023-06-26T03:56:33;15.67;15.67;13.00
77320;PMS7003;66382;52.252;8.780;2023-06-26T03:59:00;18.33;18.33;14.67
77320;PMS7003;66382;52.252;8.780;2023-06-26T04:01:25;18.00;18.00;14.00
77320;PMS7003;66382;52.252;8.780;2023-06-26T04:03:51;14.33;14.33;13.00
77320;PMS7003;66382;52.252;8.780;2023-06-26T04:06:17;19.00;19.00;14.33
77320;PMS7003;66382;52.252;8.780;2023-06-26T04:08:43;16.33;16.33;12.33
77320;PMS7003;66382;52.252;8.780;2023-06-26T04:11:08;18.33;18.33;13.67
77320;PMS7003;66382;52.252;8.780;2023-06-26T04:13:34;17.67;16.33;13.33
77320;PMS7003;66382;52.252;8.780;2023-06-26T04:16:01;19.00;19.00;14.33
77320;PMS7003;66382;52.252;8.780;2023-06-26T04:18:27;12.75;12.75;11.50
77320;PMS7003;66382;52.252;8.780;2023-06-26T04:21:06;16.33;16.33;13.00
77320;PMS7003;66382;52.252;8.780;2023-06-26T04:23:32;19.75;19.75;15.50
77320;PMS7003;66382;52.252;8.780;2023-06-26T04:25:58;15.67;15.67;13.33
77320;PMS7003;66382;52.252;8.780;2023-06-26T04:28:24;16.33;16.33;13.67
77320;PMS7003;66382;52.252;8.780;2023-06-26T04:30:50;18.33;18.33;14.00
77320;PMS7003;66382;52.252;8.780;2023-06-26T04:33:17;19.33;19.33;14.00
77320;PMS7003;66382;52.252;8.780;2023-06-26T04:35:43;14.00;14.00;12.00
77320;PMS7003;66382;52.252;8.780;2023-06-26T04:38:08;17.33;17.33;14.33
77320;PMS7003;66382;52.252;8.780;2023-06-26T04:40:34;16.67;16.67;13.33
77320;PMS7003;66382;52.252;8.780;2023-06-26T04:43:01;16.50;16.50;13.25
77320;PMS7003;66382;52.252;8.780;2023-06-26T04:45:27;14.00;14.00;11.33
77320;PMS7003;66382;52.252;8.780;2023-06-26T04:47:52;16.00;16.00;14.33
77320;PMS7003;66382;52.252;8.780;2023-06-26T04:50:20;16.00;16.00;12.00
77320;PMS7003;66382;52.252;8.780;2023-06-26T04:52:45;17.40;17.40;15.20
77320;PMS7003;66382;52.252;8.780;2023-06-26T04:55:11;15.00;15.00;13.00
77320;PMS7003;66382;52.252;8.780;2023-06-26T04:57:37;15.75;15.75;13.50
77320;PMS7003;66382;52.252;8.780;2023-06-26T05:00:02;13.75;13.75;11.75
77320;PMS7003;66382;52.252;8.780;2023-06-26T05:02:29;15.60;15.60;13.40
77320;PMS7003;66382;52.252;8.780;2023-06-26T05:04:54;17.50;17.50;14.00
77320;PMS7003;66382;52.252;8.780;2023-06-26T05:07:21;14.25;14.25;12.00
77320;PMS7003;66382;52.252;8.780;2023-06-26T05:09:47;16.20;16.20;14.40
77320;PMS7003;66382;52.252;8.780;2023-06-26T05:12:13;18.00;18.00;13.00
77320;PMS7003;66382;52.252;8.780;2023-06-26T05:14:39;14.60;14.60;12.40
77320;PMS7003;66382;52.252;8.780;2023-06-26T05:17:05;15.00;15.00;13.00
77320;PMS7003;66382;52.252;8.780;2023-06-26T05:19:30;15.00;15.00;13.00
77320;PMS7003;66382;52.252;8.780;2023-06-26T05:21:56;15.50;15.00;12.00
77320;PMS7003;66382;52.252;8.780;2023-06-26T05:24:25;16.00;16.00;13.40
77320;PMS7003;66382;52.252;8.780;2023-06-26T05:26:51;14.40;14.40;13.20
77320;PMS7003;66382;52.252;8.780;2023-06-26T05:29:17;15.80;15.80;13.40
77320;PMS7003;66382;52.252;8.780;2023-06-26T05:31:43;14.00;14.00;13.20
77320;PMS7003;66382;52.252;8.780;2023-06-26T05:34:10;16.20;16.20;13.20
77320;PMS7003;66382;52.252;8.780;2023-06-26T05:36:37;16.80;16.80;12.40
77320;PMS7003;66382;52.252;8.780;2023-06-26T05:39:06;17.00;17.00;14.00
77320;PMS7003;66382;52.252;8.780;2023-06-26T05:41:34;15.20;15.20;12.80
77320;PMS7003;66382;52.252;8.780;2023-06-26T05:44:00;16.80;16.80;14.00
77320;PMS7003;66382;52.252;8.780;2023-06-26T05:46:26;17.25;17.25;14.00
77320;PMS7003;66382;52.252;8.780;2023-06-26T05:48:52;17.00;17.00;14.25
77320;PMS7003;66382;52.252;8.780;2023-06-26T05:51:17;16.25;16.25;12.25
77320;PMS7003;66382;52.252;8.780;2023-06-26T05:53:44;16.00;16.00;13.00
77320;PMS7003;66382;52.252;8.780;2023-06-26T05:56:10;16.00;16.00;13.80
77320;PMS7003;66382;52.252;8.780;2023-06-26T05:58:38;16.80;16.80;12.00
77320;PMS7003;66382;52.252;8.780;2023-06-26T06:01:04;17.20;17.20;14.00
77320;PMS7003;66382;52.252;8.780;2023-06-26T06:03:30;14.25;14.25;11.75
77320;PMS7003;66382;52.252;8.780;2023-06-26T06:05:56;17.75;17.75;13.75
77320;PMS7003;66382;52.252;8.780;2023-06-26T06:08:21;16.50;16.50;14.00
77320;PMS7003;66382;52.252;8.780;2023-06-26T06:10:47;18.25;18.25;14.50
77320;PMS7003;66382;52.252;8.780;2023-06-26T06:13:13;18.00;18.00;14.50
77320;PMS7003;66382;52.252;8.780;2023-06-26T06:15:40;17.00;17.00;14.25
77320;PMS7003;66382;52.252;8.780;2023-06-26T06:18:06;16.60;16.60;14.40
77320;PMS7003;66382;52.252;8.780;2023-06-26T06:20:31;17.50;17.50;15.25
77320;PMS7003;66382;52.252;8.780;2023-06-26T06:22:57;19.00;19.00;16.00
77320;PMS7003;66382;52.252;8.780;2023-06-26T06:25:23;18.00;18.00;14.25
77320;PMS7003;66382;52.252;8.780;2023-06-26T06:27:49;18.25;18.25;15.00
77320;PMS7003;66382;52.252;8.780;2023-06-26T06:30:14;18.75;18.75;15.75
77320;PMS7003;66382;52.252;8.780;2023-06-26T06:32:41;19.25;19.25;15.25
77320;PMS7003;66382;52.252;8.780;2023-06-26T06:35:07;14.80;14.80;13.00
77320;PMS7003;66382;52.252;8.780;2023-06-26T06:37:33;20.25;20.25;15.25
77320;PMS7003;66382;52.252;8.780;2023-06-26T06:39:59;16.00;16.00;14.00
77320;PMS7003;66382;52.252;8.780;2023-06-26T06:42:24;20.00;20.00;16.50
77320;PMS7003;66382;52.252;8.780;2023-06-26T06:44:50;20.00;20.00;16.67
77320;PMS7003;66382;52.252;8.780;2023-06-26T06:47:16;18.25;18.25;15.25
77320;PMS7003;66382;52.252;8.780;2023-06-26T06:49:43;20.00;20.00;17.00
77320;PMS7003;66382;52.252;8.780;2023-06-26T06:52:08;20.75;20.75;17.00
77320;PMS7003;66382;52.252;8.780;2023-06-26T06:54:46;19.33;19.33;16.67
77320;PMS7003;66382;52.252;8.780;2023-06-26T06:57:16;20.20;20.20;16.80
77320;PMS7003;66382;52.252;8.780;2023-06-26T06:59:42;22.00;22.00;16.50
77320;PMS7003;66382;52.252;8.780;2023-06-26T07:02:08;19.67;19.67;17.67
77320;PMS7003;66382;52.252;8.780;2023-06-26T07:04:33;24.00;24.00;19.67
77320;PMS7003;66382;52.252;8.780;2023-06-26T07:07:00;22.67;21.00;17.00
77320;PMS7003;66382;52.252;8.780;2023-06-26T07:09:26;22.50;22.50;17.50
77320;PMS7003;66382;52.252;8.780;2023-06-26T07:11:52;21.00;21.00;16.67
77320;PMS7003;66382;52.252;8.780;2023-06-26T07:14:17;22.00;22.00;18.25
77320;PMS7003;66382;52.252;8.780;2023-06-26T07:16:43;22.00;22.00;19.00
77320;PMS7003;66382;52.252;8.780;2023-06-26T07:19:09;23.00;23.00;17.33
77320;PMS7003;66382;52.252;8.780;2023-06-26T07:21:34;21.33;21.33;18.67
77320;PMS7003;66382;52.252;8.780;2023-06-26T07:24:02;27.33;27.33;20.33
77320;PMS7003;66382;52.252;8.780;2023-06-26T07:26:27;25.00;25.00;19.75
77320;PMS7003;66382;52.252;8.780;2023-06-26T07:28:53;27.33;27.00;19.67
77320;PMS7003;66382;52.252;8.780;2023-06-26T07:31:19;24.33;24.33;18.33
77320;PMS7003;66382;52.252;8.780;2023-06-26T07:33:44;25.00;25.00;20.00
77320;PMS7003;66382;52.252;8.780;2023-06-26T07:36:10;26.00;26.00;20.67
77320;PMS7003;66382;52.252;8.780;2023-06-26T07:38:36;26.67;26.67;20.67
77320;PMS7003;66382;52.252;8.780;2023-06-26T07:41:03;23.33;23.33;18.00
77320;PMS7003;66382;52.252;8.780;2023-06-26T07:43:28;25.00;25.00;20.00
77320;PMS7003;66382;52.252;8.780;2023-06-26T07:45:54;28.00;28.00;22.00
77320;PMS7003;66382;52.252;8.780;2023-06-26T07:48:20;25.67;25.67;19.67
77320;PMS7003;66382;52.252;8.780;2023-06-26T07:50:46;25.00;25.00;19.00
77320;PMS7003;66382;52.252;8.780;2023-06-26T07:53:11;23.33;23.33;18.67
77320;PMS7003;66382;52.252;8.780;2023-06-26T07:55:37;22.33;22.33;20.00
77320;PMS7003;66382;52.252;8.780;2023-06-26T07:58:04;25.50;25.50;20.25
77320;PMS7003;66382;52.252;8.780;2023-06-26T08:00:30;26.50;26.50;19.25
77320;PMS7003;66382;52.252;8.780;2023-06-26T08:02:55;22.75;22.75;18.25
77320;PMS7003;66382;52.252;8.780;2023-06-26T08:05:21;25.00;25.00;19.33
77320;PMS7003;66382;52.252;8.780;2023-06-26T08:07:47;24.50;24.50;19.25
77320;PMS7003;66382;52.252;8.780;2023-06-26T08:10:12;28.25;27.75;19.50
77320;PMS7003;66382;52.252;8.780;2023-06-26T08:12:38;23.25;23.25;18.00
77320;PMS7003;66382;52.252;8.780;2023-06-26T08:15:06;24.00;24.00;18.50
77320;PMS7003;66382;52.252;8.780;2023-06-26T08:17:32;25.20;24.60;17.00
77320;PMS7003;66382;52.252;8.780;2023-06-26T08:19:57;20.25;20.25;16.00
77320;PMS7003;66382;52.252;8.780;2023-06-26T08:22:23;22.00;22.00;16.75
77320;PMS7003;66382;52.252;8.780;2023-06-26T08:24:49;23.00;23.00;18.25
77320;PMS7003;66382;52.252;8.780;2023-06-26T08:27:15;21.25;21.25;15.00
77320;PMS7003;66382;52.252;8.780;2023-06-26T08:29:41;23.00;23.00;18.25
77320;PMS7003;66382;52.252;8.780;2023-06-26T08:32:08;24.50;24.50;19.25
77320;PMS7003;66382;52.252;8.780;2023-06-26T08:34:33;25.40;25.40;19.40
77320;PMS7003;66382;52.252;8.780;2023-06-26T08:36:59;23.00;23.00;17.25
77320;PMS7003;66382;52.252;8.780;2023-06-26T08:39:25;27.25;26.75;19.25
77320;PMS7003;66382;52.252;8.780;2023-06-26T08:41:51;25.50;25.50;20.00
77320;PMS7003;66382;52.252;8.780;2023-06-26T08:44:16;22.00;22.00;17.75
77320;PMS7003;66382;52.252;8.780;2023-06-26T08:46:42;23.25;23.25;19.00
77320;PMS7003;66382;52.252;8.780;2023-06-26T08:49:12;21.75;21.75;18.25
77320;PMS7003;66382;52.252;8.780;2023-06-26T08:51:44;20.80;20.80;16.40
77320;PMS7003;66382;52.252;8.780;2023-06-26T08:54:17;23.60;23.60;17.60
77320;PMS7003;66382;52.252;8.780;2023-06-26T08:56:51;20.40;20.40;16.40
77320;PMS7003;66382;52.252;8.780;2023-06-26T08:59:17;23.50;23.50;18.00
77320;PMS7003;66382;52.252;8.780;2023-06-26T09:01:43;22.00;22.00;17.00
77320;PMS7003;66382;52.252;8.780;2023-06-26T09:04:10;22.60;22.40;18.00
77320;PMS7003;66382;52.252;8.780;2023-06-26T09:06:36;24.20;24.20;19.40
77320;PMS7003;66382;52.252;8.780;2023-06-26T09:09:02;19.25;19.25;14.00
77320;PMS7003;66382;52.252;8.780;2023-06-26T09:11:27;19.50;19.50;14.50
77320;PMS7003;66382;52.252;8.780;2023-06-26T09:13:53;20.00;20.00;15.75
77320;PMS7003;66382;52.252;8.780;2023-06-26T09:16:23;22.00;22.00;17.00
77320;PMS7003;66382;52.252;8.780;2023-06-26T09:18:50;20.20;20.20;17.20
77320;PMS7003;66382;52.252;8.780;2023-06-26T09:21:18;20.40;20.40;17.00
77320;PMS7003;66382;52.252;8.780;2023-06-26T09:24:02;17.40;17.40;16.20
77320;PMS7003;66382;52.252;8.780;2023-06-26T09:26:28;23.00;23.00;17.60
77320;PMS7003;66382;52.252;8.780;2023-06-26T09:28:53;19.50;19.50;16.00
77320;PMS7003;66382;52.252;8.780;2023-06-26T09:31:20;18.00;18.00;14.40
77320;PMS7003;66382;52.252;8.780;2023-06-26T09:33:46;17.75;17.75;14.50
77320;PMS7003;66382;52.252;8.780;2023-06-26T09:36:18;13.00;13.00;10.50
77320;PMS7003;66382;52.252;8.780;2023-06-26T09:38:44;15.80;15.80;13.00
77320;PMS7003;66382;52.252;8.780;2023-06-26T09:41:11;16.00;16.00;13.25
77320;PMS7003;66382;52.252;8.780;2023-06-26T09:43:45;19.60;19.60;13.80
77320;PMS7003;66382;52.252;8.780;2023-06-26T09:46:14;14.20;14.20;12.20
77320;PMS7003;66382;52.252;8.780;2023-06-26T09:48:40;15.60;15.60;12.60
77320;PMS7003;66382;52.252;8.780;2023-06-26T09:51:06;13.00;13.00;12.00
77320;PMS7003;66382;52.252;8.780;2023-06-26T09:53:32;14.00;14.00;12.00
77320;PMS7003;66382;52.252;8.780;2023-06-26T09:56:04;12.80;12.80;10.60
77320;PMS7003;66382;52.252;8.780;2023-06-26T09:58:32;16.60;16.60;12.80
77320;PMS7003;66382;52.252;8.780;2023-06-26T10:00:58;14.00;14.00;11.40
77320;PMS7003;66382;52.252;8.780;2023-06-26T10:03:23;12.00;12.00;10.00
77320;PMS7003;66382;52.252;8.780;2023-06-26T10:05:49;11.50;11.50;10.00
77320;PMS7003;66382;52.252;8.780;2023-06-26T10:08:15;14.40;14.40;11.80
77320;PMS7003;66382;52.252;8.780;2023-06-26T10:10:42;12.40;12.40;10.00
77320;PMS7003;66382;52.252;8.780;2023-06-26T10:13:13;13.40;13.40;11.20
77320;PMS7003;66382;52.252;8.780;2023-06-26T10:15:45;15.00;15.00;12.40
77320;PMS7003;66382;52.252;8.780;2023-06-26T10:18:12;15.20;15.20;11.80
77320;PMS7003;66382;52.252;8.780;2023-06-26T10:20:41;13.20;13.20;12.00
77320;PMS7003;66382;52.252;8.780;2023-06-26T10:23:10;12.40;12.40;10.20
77320;PMS7003;66382;52.252;8.780;2023-06-26T10:25:37;15.00;14.60;11.80
77320;PMS7003;66382;52.252;8.780;2023-06-26T10:28:05;13.80;13.80;10.60
77320;PMS7003;66382;52.252;8.780;2023-06-26T10:30:33;13.40;13.40;11.40
77320;PMS7003;66382;52.252;8.780;2023-06-26T10:33:01;12.20;12.20;10.40
77320;PMS7003;66382;52.252;8.780;2023-06-26T10:35:28;14.40;14.40;11.80
77320;PMS7003;66382;52.252;8.780;2023-06-26T10:38:00;12.20;12.20;10.00
77320;PMS7003;66382;52.252;8.780;2023-06-26T10:40:28;15.00;15.00;12.00
77320;PMS7003;66382;52.252;8.780;2023-06-26T10:43:05;13.60;13.60;11.00
77320;PMS7003;66382;52.252;8.780;2023-06-26T10:45:32;10.40;10.40;9.20
77320;PMS7003;66382;52.252;8.780;2023-06-26T10:47:59;12.60;12.60;11.20
77320;PMS7003;66382;52.252;8.780;2023-06-26T10:50:27;13.00;13.00;10.75
77320;PMS7003;66382;52.252;8.780;2023-06-26T10:53:14;13.00;13.00;10.00
77320;PMS7003;66382;52.252;8.780;2023-06-26T10:55:41;11.40;11.40;10.00
77320;PMS7003;66382;52.252;8.780;2023-06-26T11:00:52;9.40;9.40;8.80
77320;PMS7003;66382;52.252;8.780;2023-06-26T11:03:38;10.40;10.40;8.00
77320;PMS7003;66382;52.252;8.780;2023-06-26T11:06:16;10.40;10.40;9.00
77320;PMS7003;66382;52.252;8.780;2023-06-26T11:08:44;9.00;9.00;6.80
77320;PMS7003;66382;52.252;8.780;2023-06-26T11:11:10;5.40;5.40;2.00
77320;PMS7003;66382;52.252;8.780;2023-06-26T11:13:35;6.25;6.25;5.25
77320;PMS7003;66382;52.252;8.780;2023-06-26T11:16:02;7.40;7.40;4.80
77320;PMS7003;66382;52.252;8.780;2023-06-26T11:18:30;7.40;7.40;6.60
77320;PMS7003;66382;52.252;8.780;2023-06-26T11:21:03;5.80;5.80;5.20
77320;PMS7003;66382;52.252;8.780;2023-06-26T11:23:31;6.20;6.20;5.00
77320;PMS7003;66382;52.252;8.780;2023-06-26T11:26:12;5.20;5.20;4.80
77320;PMS7003;66382;52.252;8.780;2023-06-26T11:28:38;6.00;6.00;5.40
77320;PMS7003;66382;52.252;8.780;2023-06-26T11:31:04;5.25;5.25;5.00
77320;PMS7003;66382;52.252;8.780;2023-06-26T11:33:30;4.75;4.75;4.00
77320;PMS7003;66382;52.252;8.780;2023-06-26T11:35:55;5.25;5.25;4.75
77320;PMS7003;66382;52.252;8.780;2023-06-26T11:38:38;4.40;4.40;4.00
77320;PMS7003;66382;52.252;8.780;2023-06-26T11:41:03;4.00;4.00;3.40
77320;PMS7003;66382;52.252;8.780;2023-06-26T11:43:29;4.25;4.25;3.25
77320;PMS7003;66382;52.252;8.780;2023-06-26T11:45:55;4.00;4.00;3.50
77320;PMS7003;66382;52.252;8.780;2023-06-26T11:48:21;3.00;3.00;2.50
77320;PMS7003;66382;52.252;8.780;2023-06-26T11:50:49;4.00;4.00;3.25
77320;PMS7003;66382;52.252;8.780;2023-06-26T11:53:15;4.00;4.00;3.00
77320;PMS7003;66382;52.252;8.780;2023-06-26T11:55:42;5.00;5.00;4.00
77320;PMS7003;66382;52.252;8.780;2023-06-26T11:58:08;4.00;4.00;4.00
77320;PMS7003;66382;52.252;8.780;2023-06-26T12:00:34;4.00;4.00;3.25
77320;PMS7003;66382;52.252;8.780;2023-06-26T12:03:00;4.25;4.25;4.00
77320;PMS7003;66382;52.252;8.780;2023-06-26T12:05:26;4.20;4.20;3.40
77320;PMS7003;66382;52.252;8.780;2023-06-26T12:07:52;3.00;3.00;2.20
77320;PMS7003;66382;52.252;8.780;2023-06-26T12:10:18;3.00;3.00;2.60
77320;PMS7003;66382;52.252;8.780;2023-06-26T12:12:46;4.00;4.00;4.00
77320;PMS7003;66382;52.252;8.780;2023-06-26T12:15:13;3.40;3.40;3.20
77320;PMS7003;66382;52.252;8.780;2023-06-26T12:17:40;4.00;4.00;3.60
77320;PMS7003;66382;52.252;8.780;2023-06-26T12:20:16;3.00;3.00;2.75
77320;PMS7003;66382;52.252;8.780;2023-06-26T12:22:43;3.00;3.00;3.00
77320;PMS7003;66382;52.252;8.780;2023-06-26T12:25:10;3.20;3.20;3.20
77320;PMS7003;66382;52.252;8.780;2023-06-26T12:27:36;3.25;3.25;3.00
77320;PMS7003;66382;52.252;8.780;2023-06-26T12:30:03;5.00;5.00;4.00
77320;PMS7003;66382;52.252;8.780;2023-06-26T12:32:30;5.00;5.00;4.00
77320;PMS7003;66382;52.252;8.780;2023-06-26T12:34:56;3.75;3.75;3.50
77320;PMS7003;66382;52.252;8.780;2023-06-26T12:37:23;4.20;4.20;4.00
77320;PMS7003;66382;52.252;8.780;2023-06-26T12:39:49;4.00;4.00;4.00
77320;PMS7003;66382;52.252;8.780;2023-06-26T12:42:17;4.00;4.00;3.60
77320;PMS7003;66382;52.252;8.780;2023-06-26T12:44:44;3.20;3.20;3.20
77320;PMS7003;66382;52.252;8.780;2023-06-26T12:47:12;3.80;3.80;3.40
77320;PMS7003;66382;52.252;8.780;2023-06-26T12:49:40;4.40;4.40;4.00
77320;PMS7003;66382;52.252;8.780;2023-06-26T12:52:08;4.20;4.20;4.00
77320;PMS7003;66382;52.252;8.780;2023-06-26T12:54:35;5.00;5.00;4.20
77320;PMS7003;66382;52.252;8.780;2023-06-26T12:57:01;4.00;4.00;3.20
77320;PMS7003;66382;52.252;8.780;2023-06-26T12:59:27;4.00;4.00;4.00
77320;PMS7003;66382;52.252;8.780;2023-06-26T13:01:53;4.00;4.00;4.00
77320;PMS7003;66382;52.252;8.780;2023-06-26T13:04:20;5.00;5.00;4.50
77320;PMS7003;66382;52.252;8.780;2023-06-26T13:06:46;5.00;5.00;4.00
77320;PMS7003;66382;52.252;8.780;2023-06-26T13:09:12;3.75;3.75;3.00
77320;PMS7003;66382;52.252;8.780;2023-06-26T13:11:38;4.40;4.40;4.00
77320;PMS7003;66382;52.252;8.780;2023-06-26T13:14:04;3.00;3.00;3.00
77320;PMS7003;66382;52.252;8.780;2023-06-26T13:16:29;4.00;4.00;3.00
77320;PMS7003;66382;52.252;8.780;2023-06-26T13:18:55;3.75;3.75;3.00
77320;PMS7003;66382;52.252;8.780;2023-06-26T13:21:24;4.00;4.00;3.20
77320;PMS7003;66382;52.252;8.780;2023-06-26T13:23:50;4.60;4.60;4.20
77320;PMS7003;66382;52.252;8.780;2023-06-26T13:26:16;4.50;4.50;3.00
77320;PMS7003;66382;52.252;8.780;2023-06-26T13:28:41;4.75;4.75;4.25
77320;PMS7003;66382;52.252;8.780;2023-06-26T13:31:07;5.25;5.25;4.50
77320;PMS7003;66382;52.252;8.780;2023-06-26T13:33:33;5.00;5.00;4.50
77320;PMS7003;66382;52.252;8.780;2023-06-26T13:35:59;6.00;6.00;5.00
77320;PMS7003;66382;52.252;8.780;2023-06-26T13:38:26;4.75;4.75;4.00
77320;PMS7003;66382;52.252;8.780;2023-06-26T13:40:51;4.00;4.00;3.20
77320;PMS7003;66382;52.252;8.780;2023-06-26T13:43:17;5.00;5.00;3.80
77320;PMS7003;66382;52.252;8.780;2023-06-26T13:45:43;5.00;5.00;4.00
77320;PMS7003;66382;52.252;8.780;2023-06-26T13:48:09;5.00;5.00;5.00
77320;PMS7003;66382;52.252;8.780;2023-06-26T13:50:34;5.00;5.00;4.00
77320;PMS7003;66382;52.252;8.780;2023-06-26T13:53:00;3.00;3.00;3.00
77320;PMS7003;66382;52.252;8.780;2023-06-26T13:55:27;2.50;2.50;2.50